sensor_id;sensor_type;location;lat;lon;timestamp;P1;durP1;ratioP1;P2;durP2;ratioP2
34142;SDS011;20419;10.658;106.724;2023-03-22T00:01:35;7.97;;;5.22;;
34142;SDS011;20419;10.658;106.724;2023-03-22T00:04:02;6.72;;;5.32;;
34142;SDS011;20419;10.658;106.724;2023-03-22T00:06:29;7.47;;;5.22;;
34142;SDS011;20419;10.658;106.724;2023-03-22T00:08:56;7.75;;;5.35;;
34142;SDS011;20419;10.658;106.724;2023-03-22T00:11:23;8.60;;;5.88;;
34142;SDS011;20419;10.658;106.724;2023-03-22T00:13:50;7.40;;;5.82;;
34142;SDS011;20419;10.658;106.724;2023-03-22T00:16:18;9.43;;;5.32;;
34142;SDS011;20419;10.658;106.724;2023-03-22T00:18:46;6.30;;;4.80;;
34142;SDS011;20419;10.658;106.724;2023-03-22T00:21:14;7.15;;;5.40;;
34142;SDS011;20419;10.658;106.724;2023-03-22T00:23:41;8.50;;;5.63;;
34142;SDS011;20419;10.658;106.724;2023-03-22T00:26:10;9.05;;;5.82;;
34142;SDS011;20419;10.658;106.724;2023-03-22T00:31:04;7.80;;;5.30;;
34142;SDS011;20419;10.658;106.724;2023-03-22T00:33:31;6.85;;;4.85;;
34142;SDS011;20419;10.658;106.724;2023-03-22T00:35:59;6.88;;;4.97;;
34142;SDS011;20419;10.658;106.724;2023-03-22T00:41:05;9.10;;;5.75;;
34142;SDS011;20419;10.658;106.724;2023-03-22T00:43:32;7.65;;;5.15;;
34142;SDS011;20419;10.658;106.724;2023-03-22T00:45:59;7.65;;;5.63;;
34142;SDS011;20419;10.658;106.724;2023-03-22T00:48:26;9.20;;;5.28;;
34142;SDS011;20419;10.658;106.724;2023-03-22T00:50:53;6.25;;;4.90;;
34142;SDS011;20419;10.658;106.724;2023-03-22T00:53:20;7.35;;;5.13;;
34142;SDS011;20419;10.658;106.724;2023-03-22T00:55:47;6.60;;;5.03;;
34142;SDS011;20419;10.658;106.724;2023-03-22T00:58:15;6.50;;;5.10;;
34142;SDS011;20419;10.658;106.724;2023-03-22T01:00:42;7.45;;;5.43;;
34142;SDS011;20419;10.658;106.724;2023-03-22T01:03:10;6.87;;;4.97;;
34142;SDS011;20419;10.658;106.724;2023-03-22T01:05:38;7.53;;;5.28;;
34142;SDS011;20419;10.658;106.724;2023-03-22T01:08:05;6.43;;;4.70;;
34142;SDS011;20419;10.658;106.724;2023-03-22T01:10:38;6.32;;;4.85;;
34142;SDS011;20419;10.658;106.724;2023-03-22T01:13:05;7.17;;;4.90;;
34142;SDS011;20419;10.658;106.724;2023-03-22T01:15:33;8.52;;;5.22;;
34142;SDS011;20419;10.658;106.724;2023-03-22T01:18:01;8.88;;;5.15;;
34142;SDS011;20419;10.658;106.724;2023-03-22T01:20:28;7.03;;;4.50;;
34142;SDS011;20419;10.658;106.724;2023-03-22T01:22:55;6.78;;;4.95;;
34142;SDS011;20419;10.658;106.724;2023-03-22T01:25:22;5.82;;;4.70;;
34142;SDS011;20419;10.658;106.724;2023-03-22T01:27:49;7.78;;;4.95;;
34142;SDS011;20419;10.658;106.724;2023-03-22T01:30:16;8.27;;;4.82;;
34142;SDS011;20419;10.658;106.724;2023-03-22T01:32:44;6.93;;;4.57;;
34142;SDS011;20419;10.658;106.724;2023-03-22T01:35:12;7.40;;;5.03;;
34142;SDS011;20419;10.658;106.724;2023-03-22T01:37:39;7.68;;;4.72;;
34142;SDS011;20419;10.658;106.724;2023-03-22T01:40:06;7.55;;;5.28;;
34142;SDS011;20419;10.658;106.724;2023-03-22T01:42:33;5.72;;;4.82;;
34142;SDS011;20419;10.658;106.724;2023-03-22T01:45:26;5.97;;;4.47;;
34142;SDS011;20419;10.658;106.724;2023-03-22T01:48:04;6.03;;;4.97;;
34142;SDS011;20419;10.658;106.724;2023-03-22T01:50:31;6.07;;;4.43;;
34142;SDS011;20419;10.658;106.724;2023-03-22T01:52:58;5.47;;;4.40;;
34142;SDS011;20419;10.658;106.724;2023-03-22T01:55:29;6.28;;;4.78;;
34142;SDS011;20419;10.658;106.724;2023-03-22T01:57:57;5.85;;;4.97;;
34142;SDS011;20419;10.658;106.724;2023-03-22T02:00:25;6.22;;;4.95;;
34142;SDS011;20419;10.658;106.724;2023-03-22T02:02:52;6.55;;;4.95;;
34142;SDS011;20419;10.658;106.724;2023-03-22T02:05:19;5.55;;;4.70;;
34142;SDS011;20419;10.658;106.724;2023-03-22T02:07:49;6.32;;;4.70;;
34142;SDS011;20419;10.658;106.724;2023-03-22T02:10:19;5.93;;;4.93;;
34142;SDS011;20419;10.658;106.724;2023-03-22T02:29:27;6.40;;;4.50;;
34142;SDS011;20419;10.658;106.724;2023-03-22T02:32:04;5.22;;;4.57;;
34142;SDS011;20419;10.658;106.724;2023-03-22T02:39:54;7.18;;;4.80;;
34142;SDS011;20419;10.658;106.724;2023-03-22T02:48:00;5.97;;;4.60;;
34142;SDS011;20419;10.658;106.724;2023-03-22T02:50:51;6.05;;;5.00;;
34142;SDS011;20419;10.658;106.724;2023-03-22T02:53:34;8.13;;;4.95;;
34142;SDS011;20419;10.658;106.724;2023-03-22T02:57:06;6.38;;;4.63;;
34142;SDS011;20419;10.658;106.724;2023-03-22T03:01:42;5.93;;;4.10;;
34142;SDS011;20419;10.658;106.724;2023-03-22T03:04:11;5.72;;;4.82;;
34142;SDS011;20419;10.658;106.724;2023-03-22T03:06:41;6.10;;;4.85;;
34142;SDS011;20419;10.658;106.724;2023-03-22T03:09:12;6.50;;;4.63;;
34142;SDS011;20419;10.658;106.724;2023-03-22T03:11:47;6.05;;;4.80;;
34142;SDS011;20419;10.658;106.724;2023-03-22T03:14:26;6.45;;;5.00;;
34142;SDS011;20419;10.658;106.724;2023-03-22T03:19:44;4.85;;;4.00;;
34142;SDS011;20419;10.658;106.724;2023-03-22T03:25:17;6.60;;;4.55;;
34142;SDS011;20419;10.658;106.724;2023-03-22T03:27:39;6.25;;;4.95;;
34142;SDS011;20419;10.658;106.724;2023-03-22T03:30:15;6.03;;;4.32;;
34142;SDS011;20419;10.658;106.724;2023-03-22T03:32:46;5.70;;;4.75;;
34142;SDS011;20419;10.658;106.724;2023-03-22T03:35:21;6.20;;;4.32;;
34142;SDS011;20419;10.658;106.724;2023-03-22T03:37:54;7.80;;;4.32;;
34142;SDS011;20419;10.658;106.724;2023-03-22T03:40:25;5.47;;;4.47;;
34142;SDS011;20419;10.658;106.724;2023-03-22T03:42:54;5.13;;;4.07;;
34142;SDS011;20419;10.658;106.724;2023-03-22T03:45:22;5.40;;;4.45;;
34142;SDS011;20419;10.658;106.724;2023-03-22T03:47:49;5.93;;;4.32;;
34142;SDS011;20419;10.658;106.724;2023-03-22T03:50:22;5.55;;;4.35;;
34142;SDS011;20419;10.658;106.724;2023-03-22T03:52:50;5.50;;;3.95;;
34142;SDS011;20419;10.658;106.724;2023-03-22T03:55:18;6.95;;;5.25;;
34142;SDS011;20419;10.658;106.724;2023-03-22T03:57:46;5.78;;;4.65;;
34142;SDS011;20419;10.658;106.724;2023-03-22T04:00:13;5.50;;;4.45;;
34142;SDS011;20419;10.658;106.724;2023-03-22T04:02:41;6.05;;;4.68;;
34142;SDS011;20419;10.658;106.724;2023-03-22T04:05:09;6.30;;;4.65;;
34142;SDS011;20419;10.658;106.724;2023-03-22T04:07:37;5.88;;;4.60;;
34142;SDS011;20419;10.658;106.724;2023-03-22T04:10:05;5.55;;;4.75;;
34142;SDS011;20419;10.658;106.724;2023-03-22T04:12:32;6.57;;;5.00;;
34142;SDS011;20419;10.658;106.724;2023-03-22T04:15:00;6.15;;;4.50;;
34142;SDS011;20419;10.658;106.724;2023-03-22T04:17:27;6.80;;;4.72;;
34142;SDS011;20419;10.658;106.724;2023-03-22T04:19:56;5.15;;;4.03;;
34142;SDS011;20419;10.658;106.724;2023-03-22T04:22:24;6.03;;;4.57;;
34142;SDS011;20419;10.658;106.724;2023-03-22T04:24:51;5.57;;;4.53;;
34142;SDS011;20419;10.658;106.724;2023-03-22T04:27:19;7.25;;;4.78;;
34142;SDS011;20419;10.658;106.724;2023-03-22T04:29:47;6.00;;;4.47;;
34142;SDS011;20419;10.658;106.724;2023-03-22T04:32:18;5.78;;;4.00;;
34142;SDS011;20419;10.658;106.724;2023-03-22T04:34:48;6.15;;;4.20;;
34142;SDS011;20419;10.658;106.724;2023-03-22T04:37:16;5.05;;;4.10;;
34142;SDS011;20419;10.658;106.724;2023-03-22T04:39:43;5.82;;;4.50;;
34142;SDS011;20419;10.658;106.724;2023-03-22T04:42:11;6.23;;;4.17;;
34142;SDS011;20419;10.658;106.724;2023-03-22T04:44:38;4.95;;;3.97;;
34142;SDS011;20419;10.658;106.724;2023-03-22T04:47:05;5.28;;;4.40;;
34142;SDS011;20419;10.658;106.724;2023-03-22T04:49:33;5.53;;;4.00;;
34142;SDS011;20419;10.658;106.724;2023-03-22T04:52:00;5.65;;;4.22;;
34142;SDS011;20419;10.658;106.724;2023-03-22T04:54:27;5.60;;;4.35;;
34142;SDS011;20419;10.658;106.724;2023-03-22T04:56:55;6.38;;;4.10;;
34142;SDS011;20419;10.658;106.724;2023-03-22T04:59:22;6.63;;;4.57;;
34142;SDS011;20419;10.658;106.724;2023-03-22T05:01:49;5.22;;;4.15;;
34142;SDS011;20419;10.658;106.724;2023-03-22T05:04:17;6.07;;;4.72;;
34142;SDS011;20419;10.658;106.724;2023-03-22T05:06:45;5.53;;;4.03;;
34142;SDS011;20419;10.658;106.724;2023-03-22T05:09:12;6.00;;;4.40;;
34142;SDS011;20419;10.658;106.724;2023-03-22T05:11:39;5.05;;;3.97;;
34142;SDS011;20419;10.658;106.724;2023-03-22T05:14:08;5.72;;;4.10;;
34142;SDS011;20419;10.658;106.724;2023-03-22T05:16:35;5.13;;;4.25;;
34142;SDS011;20419;10.658;106.724;2023-03-22T05:19:06;5.47;;;4.45;;
34142;SDS011;20419;10.658;106.724;2023-03-22T05:21:39;5.57;;;4.25;;
34142;SDS011;20419;10.658;106.724;2023-03-22T05:24:09;5.82;;;4.32;;
34142;SDS011;20419;10.658;106.724;2023-03-22T05:26:36;5.23;;;4.00;;
34142;SDS011;20419;10.658;106.724;2023-03-22T05:29:07;6.00;;;4.72;;
34142;SDS011;20419;10.658;106.724;2023-03-22T05:34:02;5.78;;;4.35;;
34142;SDS011;20419;10.658;106.724;2023-03-22T05:36:29;5.25;;;4.07;;
34142;SDS011;20419;10.658;106.724;2023-03-22T05:38:56;6.95;;;4.90;;
34142;SDS011;20419;10.658;106.724;2023-03-22T05:41:24;6.25;;;4.53;;
34142;SDS011;20419;10.658;106.724;2023-03-22T05:43:51;5.43;;;4.30;;
34142;SDS011;20419;10.658;106.724;2023-03-22T05:46:19;5.78;;;4.05;;
34142;SDS011;20419;10.658;106.724;2023-03-22T05:48:46;4.70;;;4.05;;
34142;SDS011;20419;10.658;106.724;2023-03-22T05:51:14;6.20;;;4.60;;
34142;SDS011;20419;10.658;106.724;2023-03-22T05:53:46;5.20;;;4.07;;
34142;SDS011;20419;10.658;106.724;2023-03-22T05:56:14;5.28;;;4.68;;
34142;SDS011;20419;10.658;106.724;2023-03-22T05:58:41;5.55;;;4.55;;
34142;SDS011;20419;10.658;106.724;2023-03-22T06:01:10;5.80;;;4.60;;
34142;SDS011;20419;10.658;106.724;2023-03-22T06:03:38;6.25;;;4.53;;
34142;SDS011;20419;10.658;106.724;2023-03-22T06:06:05;5.60;;;4.40;;
34142;SDS011;20419;10.658;106.724;2023-03-22T06:08:38;4.72;;;4.07;;
34142;SDS011;20419;10.658;106.724;2023-03-22T06:11:06;5.30;;;4.13;;
34142;SDS011;20419;10.658;106.724;2023-03-22T06:13:33;6.10;;;4.85;;
34142;SDS011;20419;10.658;106.724;2023-03-22T06:16:02;5.25;;;4.40;;
34142;SDS011;20419;10.658;106.724;2023-03-22T06:18:30;5.57;;;4.15;;
34142;SDS011;20419;10.658;106.724;2023-03-22T06:20:58;4.90;;;4.30;;
34142;SDS011;20419;10.658;106.724;2023-03-22T06:23:25;6.63;;;4.45;;
34142;SDS011;20419;10.658;106.724;2023-03-22T06:25:52;6.38;;;4.30;;
34142;SDS011;20419;10.658;106.724;2023-03-22T06:28:20;6.30;;;4.88;;
34142;SDS011;20419;10.658;106.724;2023-03-22T06:30:47;4.93;;;3.88;;
34142;SDS011;20419;10.658;106.724;2023-03-22T06:33:15;5.18;;;4.18;;
34142;SDS011;20419;10.658;106.724;2023-03-22T06:35:42;5.00;;;4.40;;
34142;SDS011;20419;10.658;106.724;2023-03-22T06:38:09;5.80;;;4.70;;
34142;SDS011;20419;10.658;106.724;2023-03-22T06:40:36;5.38;;;4.28;;
34142;SDS011;20419;10.658;106.724;2023-03-22T06:43:04;7.43;;;4.35;;
34142;SDS011;20419;10.658;106.724;2023-03-22T06:45:31;5.88;;;4.28;;
34142;SDS011;20419;10.658;106.724;2023-03-22T06:47:58;6.00;;;4.35;;
34142;SDS011;20419;10.658;106.724;2023-03-22T06:50:26;5.13;;;4.20;;
34142;SDS011;20419;10.658;106.724;2023-03-22T06:52:53;5.38;;;4.43;;
34142;SDS011;20419;10.658;106.724;2023-03-22T06:55:21;5.22;;;3.95;;
34142;SDS011;20419;10.658;106.724;2023-03-22T06:58:06;4.80;;;4.05;;
34142;SDS011;20419;10.658;106.724;2023-03-22T07:00:33;5.93;;;4.22;;
34142;SDS011;20419;10.658;106.724;2023-03-22T07:03:01;5.18;;;4.10;;
34142;SDS011;20419;10.658;106.724;2023-03-22T07:05:29;5.32;;;4.68;;
34142;SDS011;20419;10.658;106.724;2023-03-22T07:07:56;5.33;;;4.43;;
34142;SDS011;20419;10.658;106.724;2023-03-22T07:10:24;5.35;;;4.03;;
34142;SDS011;20419;10.658;106.724;2023-03-22T07:12:51;6.38;;;4.53;;
34142;SDS011;20419;10.658;106.724;2023-03-22T07:15:18;7.03;;;4.80;;
34142;SDS011;20419;10.658;106.724;2023-03-22T07:17:49;6.07;;;4.55;;
34142;SDS011;20419;10.658;106.724;2023-03-22T07:20:21;5.28;;;4.38;;
34142;SDS011;20419;10.658;106.724;2023-03-22T07:22:49;5.55;;;4.63;;
34142;SDS011;20419;10.658;106.724;2023-03-22T07:25:18;7.95;;;4.50;;
34142;SDS011;20419;10.658;106.724;2023-03-22T07:27:46;5.03;;;4.45;;
34142;SDS011;20419;10.658;106.724;2023-03-22T07:30:13;5.90;;;4.35;;
34142;SDS011;20419;10.658;106.724;2023-03-22T07:32:40;5.78;;;4.40;;
34142;SDS011;20419;10.658;106.724;2023-03-22T07:35:07;5.97;;;4.10;;
34142;SDS011;20419;10.658;106.724;2023-03-22T07:37:36;5.13;;;3.90;;
34142;SDS011;20419;10.658;106.724;2023-03-22T07:40:03;6.28;;;4.57;;
34142;SDS011;20419;10.658;106.724;2023-03-22T07:42:31;7.23;;;4.43;;
34142;SDS011;20419;10.658;106.724;2023-03-22T07:44:59;5.80;;;4.07;;
34142;SDS011;20419;10.658;106.724;2023-03-22T07:47:26;6.35;;;4.15;;
34142;SDS011;20419;10.658;106.724;2023-03-22T07:49:53;6.20;;;4.28;;
34142;SDS011;20419;10.658;106.724;2023-03-22T07:52:21;5.90;;;3.90;;
34142;SDS011;20419;10.658;106.724;2023-03-22T07:54:48;5.45;;;4.43;;
34142;SDS011;20419;10.658;106.724;2023-03-22T07:57:15;7.00;;;4.55;;
34142;SDS011;20419;10.658;106.724;2023-03-22T07:59:42;6.18;;;4.00;;
34142;SDS011;20419;10.658;106.724;2023-03-22T08:02:10;6.40;;;4.28;;
34142;SDS011;20419;10.658;106.724;2023-03-22T08:04:37;10.23;;;4.80;;
34142;SDS011;20419;10.658;106.724;2023-03-22T08:07:04;5.72;;;4.55;;
34142;SDS011;20419;10.658;106.724;2023-03-22T08:09:34;5.25;;;4.10;;
34142;SDS011;20419;10.658;106.724;2023-03-22T08:12:03;5.15;;;3.95;;
34142;SDS011;20419;10.658;106.724;2023-03-22T08:14:31;6.65;;;4.82;;
34142;SDS011;20419;10.658;106.724;2023-03-22T08:16:59;6.13;;;4.88;;
34142;SDS011;20419;10.658;106.724;2023-03-22T08:19:26;5.38;;;4.18;;
34142;SDS011;20419;10.658;106.724;2023-03-22T08:21:54;5.05;;;4.28;;
34142;SDS011;20419;10.658;106.724;2023-03-22T08:24:21;5.65;;;3.95;;
34142;SDS011;20419;10.658;106.724;2023-03-22T08:26:48;5.57;;;3.92;;
34142;SDS011;20419;10.658;106.724;2023-03-22T08:29:16;6.43;;;4.60;;
34142;SDS011;20419;10.658;106.724;2023-03-22T08:31:43;6.40;;;4.18;;
34142;SDS011;20419;10.658;106.724;2023-03-22T08:34:11;6.55;;;4.55;;
34142;SDS011;20419;10.658;106.724;2023-03-22T08:36:38;7.10;;;4.65;;
34142;SDS011;20419;10.658;106.724;2023-03-22T08:39:05;8.55;;;4.63;;
34142;SDS011;20419;10.658;106.724;2023-03-22T08:41:33;5.63;;;4.43;;
34142;SDS011;20419;10.658;106.724;2023-03-22T08:44:00;5.40;;;4.45;;
34142;SDS011;20419;10.658;106.724;2023-03-22T08:46:27;7.50;;;3.92;;
34142;SDS011;20419;10.658;106.724;2023-03-22T08:48:55;6.07;;;4.38;;
34142;SDS011;20419;10.658;106.724;2023-03-22T08:51:25;7.72;;;4.13;;
34142;SDS011;20419;10.658;106.724;2023-03-22T08:53:52;7.97;;;5.10;;
34142;SDS011;20419;10.658;106.724;2023-03-22T08:56:23;9.52;;;4.00;;
34142;SDS011;20419;10.658;106.724;2023-03-22T08:58:52;6.38;;;4.15;;
34142;SDS011;20419;10.658;106.724;2023-03-22T09:01:19;5.68;;;4.50;;
34142;SDS011;20419;10.658;106.724;2023-03-22T09:03:46;6.80;;;4.38;;
34142;SDS011;20419;10.658;106.724;2023-03-22T09:06:13;6.45;;;4.38;;
34142;SDS011;20419;10.658;106.724;2023-03-22T09:08:40;6.05;;;4.45;;
34142;SDS011;20419;10.658;106.724;2023-03-22T09:11:08;5.88;;;4.43;;
34142;SDS011;20419;10.658;106.724;2023-03-22T09:13:36;6.28;;;4.80;;
34142;SDS011;20419;10.658;106.724;2023-03-22T09:16:04;8.02;;;4.43;;
34142;SDS011;20419;10.658;106.724;2023-03-22T09:18:33;8.05;;;4.65;;
34142;SDS011;20419;10.658;106.724;2023-03-22T09:21:01;8.30;;;4.88;;
34142;SDS011;20419;10.658;106.724;2023-03-22T09:23:28;8.10;;;4.38;;
34142;SDS011;20419;10.658;106.724;2023-03-22T09:25:58;7.30;;;4.32;;
34142;SDS011;20419;10.658;106.724;2023-03-22T09:28:26;7.13;;;4.53;;
34142;SDS011;20419;10.658;106.724;2023-03-22T09:30:54;6.50;;;4.47;;
34142;SDS011;20419;10.658;106.724;2023-03-22T09:33:21;5.65;;;4.00;;
34142;SDS011;20419;10.658;106.724;2023-03-22T09:35:48;8.18;;;4.22;;
34142;SDS011;20419;10.658;106.724;2023-03-22T09:38:15;6.32;;;4.28;;
34142;SDS011;20419;10.658;106.724;2023-03-22T09:40:47;6.53;;;4.07;;
34142;SDS011;20419;10.658;106.724;2023-03-22T09:43:35;7.13;;;4.65;;
34142;SDS011;20419;10.658;106.724;2023-03-22T09:46:05;7.03;;;4.43;;
34142;SDS011;20419;10.658;106.724;2023-03-22T09:48:37;8.20;;;4.50;;
34142;SDS011;20419;10.658;106.724;2023-03-22T09:51:06;6.35;;;4.10;;
34142;SDS011;20419;10.658;106.724;2023-03-22T09:53:40;5.72;;;3.97;;
34142;SDS011;20419;10.658;106.724;2023-03-22T09:56:16;6.22;;;4.50;;
34142;SDS011;20419;10.658;106.724;2023-03-22T10:07:13;6.20;;;4.18;;
34142;SDS011;20419;10.658;106.724;2023-03-22T10:14:56;7.22;;;4.82;;
34142;SDS011;20419;10.658;106.724;2023-03-22T10:17:25;5.75;;;3.58;;
34142;SDS011;20419;10.658;106.724;2023-03-22T10:19:57;5.78;;;4.15;;
34142;SDS011;20419;10.658;106.724;2023-03-22T10:22:31;6.10;;;3.83;;
34142;SDS011;20419;10.658;106.724;2023-03-22T10:24:59;6.00;;;3.90;;
34142;SDS011;20419;10.658;106.724;2023-03-22T10:27:27;6.55;;;4.05;;
34142;SDS011;20419;10.658;106.724;2023-03-22T10:32:24;5.65;;;3.67;;
34142;SDS011;20419;10.658;106.724;2023-03-22T10:34:53;5.63;;;4.38;;
34142;SDS011;20419;10.658;106.724;2023-03-22T10:37:21;5.40;;;3.85;;
34142;SDS011;20419;10.658;106.724;2023-03-22T10:39:53;5.55;;;4.07;;
34142;SDS011;20419;10.658;106.724;2023-03-22T10:42:25;7.00;;;4.10;;
34142;SDS011;20419;10.658;106.724;2023-03-22T10:47:26;6.25;;;3.95;;
34142;SDS011;20419;10.658;106.724;2023-03-22T10:49:55;5.00;;;3.78;;
34142;SDS011;20419;10.658;106.724;2023-03-22T10:52:42;5.47;;;3.85;;
34142;SDS011;20419;10.658;106.724;2023-03-22T10:55:12;5.85;;;3.78;;
34142;SDS011;20419;10.658;106.724;2023-03-22T10:57:40;6.57;;;3.92;;
34142;SDS011;20419;10.658;106.724;2023-03-22T11:00:07;6.90;;;3.88;;
34142;SDS011;20419;10.658;106.724;2023-03-22T11:02:51;4.95;;;3.92;;
34142;SDS011;20419;10.658;106.724;2023-03-22T11:05:22;5.40;;;3.75;;
34142;SDS011;20419;10.658;106.724;2023-03-22T11:07:50;5.93;;;3.70;;
34142;SDS011;20419;10.658;106.724;2023-03-22T11:10:21;4.72;;;3.53;;
34142;SDS011;20419;10.658;106.724;2023-03-22T11:13:10;6.80;;;3.97;;
34142;SDS011;20419;10.658;106.724;2023-03-22T11:18:10;6.47;;;3.72;;
34142;SDS011;20419;10.658;106.724;2023-03-22T11:20:39;7.45;;;4.20;;
34142;SDS011;20419;10.658;106.724;2023-03-22T11:23:10;4.68;;;3.38;;
34142;SDS011;20419;10.658;106.724;2023-03-22T11:25:43;6.03;;;3.90;;
34142;SDS011;20419;10.658;106.724;2023-03-22T11:28:27;6.07;;;4.15;;
34142;SDS011;20419;10.658;106.724;2023-03-22T11:33:35;5.13;;;3.92;;
34142;SDS011;20419;10.658;106.724;2023-03-22T11:36:06;5.97;;;3.70;;
34142;SDS011;20419;10.658;106.724;2023-03-22T11:38:41;6.03;;;4.00;;
34142;SDS011;20419;10.658;106.724;2023-03-22T11:43:40;5.65;;;4.03;;
34142;SDS011;20419;10.658;106.724;2023-03-22T11:46:08;6.57;;;3.55;;
34142;SDS011;20419;10.658;106.724;2023-03-22T11:48:36;6.60;;;4.17;;
34142;SDS011;20419;10.658;106.724;2023-03-22T11:51:08;5.13;;;3.60;;
34142;SDS011;20419;10.658;106.724;2023-03-22T11:53:37;4.60;;;3.60;;
34142;SDS011;20419;10.658;106.724;2023-03-22T11:56:06;6.70;;;4.10;;
34142;SDS011;20419;10.658;106.724;2023-03-22T12:01:05;4.90;;;3.33;;
34142;SDS011;20419;10.658;106.724;2023-03-22T12:03:38;4.85;;;4.00;;
34142;SDS011;20419;10.658;106.724;2023-03-22T12:06:18;6.43;;;3.90;;
34142;SDS011;20419;10.658;106.724;2023-03-22T12:08:51;4.53;;;3.40;;
34142;SDS011;20419;10.658;106.724;2023-03-22T12:11:26;5.18;;;3.38;;
34142;SDS011;20419;10.658;106.724;2023-03-22T12:14:02;5.20;;;3.53;;
34142;SDS011;20419;10.658;106.724;2023-03-22T12:16:33;4.10;;;3.45;;
34142;SDS011;20419;10.658;106.724;2023-03-22T12:21:52;5.60;;;3.72;;
34142;SDS011;20419;10.658;106.724;2023-03-22T12:24:28;4.47;;;3.38;;
34142;SDS011;20419;10.658;106.724;2023-03-22T12:30:25;4.95;;;3.22;;
34142;SDS011;20419;10.658;106.724;2023-03-22T12:32:58;6.07;;;3.83;;
34142;SDS011;20419;10.658;106.724;2023-03-22T12:35:30;5.25;;;3.83;;
34142;SDS011;20419;10.658;106.724;2023-03-22T12:38:10;6.35;;;4.15;;
34142;SDS011;20419;10.658;106.724;2023-03-22T12:40:41;4.60;;;3.42;;
34142;SDS011;20419;10.658;106.724;2023-03-22T12:43:22;5.47;;;3.72;;
34142;SDS011;20419;10.658;106.724;2023-03-22T12:45:54;4.30;;;3.08;;
34142;SDS011;20419;10.658;106.724;2023-03-22T12:53:29;4.60;;;3.67;;
34142;SDS011;20419;10.658;106.724;2023-03-22T12:55:58;5.55;;;3.67;;
34142;SDS011;20419;10.658;106.724;2023-03-22T12:58:26;4.60;;;3.40;;
34142;SDS011;20419;10.658;106.724;2023-03-22T13:03:44;6.30;;;3.90;;
34142;SDS011;20419;10.658;106.724;2023-03-22T13:11:42;6.53;;;3.35;;
34142;SDS011;20419;10.658;106.724;2023-03-22T13:17:02;5.18;;;4.03;;
34142;SDS011;20419;10.658;106.724;2023-03-22T13:19:37;5.38;;;3.83;;
34142;SDS011;20419;10.658;106.724;2023-03-22T13:27:57;5.22;;;3.78;;
34142;SDS011;20419;10.658;106.724;2023-03-22T13:30:29;5.20;;;3.78;;
34142;SDS011;20419;10.658;106.724;2023-03-22T13:48:52;5.25;;;3.45;;
34142;SDS011;20419;10.658;106.724;2023-03-22T13:56:33;4.72;;;3.67;;
34142;SDS011;20419;10.658;106.724;2023-03-22T14:02:10;5.13;;;3.50;;
34142;SDS011;20419;10.658;106.724;2023-03-22T14:18:40;4.45;;;3.35;;
34142;SDS011;20419;10.658;106.724;2023-03-22T14:21:12;4.18;;;3.42;;
34142;SDS011;20419;10.658;106.724;2023-03-22T14:23:51;4.57;;;3.38;;
34142;SDS011;20419;10.658;106.724;2023-03-22T14:28:53;4.07;;;3.47;;
34142;SDS011;20419;10.658;106.724;2023-03-22T14:31:30;5.05;;;3.40;;
34142;SDS011;20419;10.658;106.724;2023-03-22T14:36:31;4.55;;;3.47;;
34142;SDS011;20419;10.658;106.724;2023-03-22T14:39:06;4.70;;;3.60;;
34142;SDS011;20419;10.658;106.724;2023-03-22T14:41:54;5.13;;;3.72;;
34142;SDS011;20419;10.658;106.724;2023-03-22T14:44:22;4.88;;;3.30;;
34142;SDS011;20419;10.658;106.724;2023-03-22T14:46:58;5.65;;;3.25;;
34142;SDS011;20419;10.658;106.724;2023-03-22T14:49:27;6.03;;;3.55;;
34142;SDS011;20419;10.658;106.724;2023-03-22T14:51:56;4.22;;;3.40;;
34142;SDS011;20419;10.658;106.724;2023-03-22T14:54:28;4.72;;;3.42;;
34142;SDS011;20419;10.658;106.724;2023-03-22T14:57:03;6.72;;;4.20;;
34142;SDS011;20419;10.658;106.724;2023-03-22T14:59:32;5.55;;;4.13;;
34142;SDS011;20419;10.658;106.724;2023-03-22T15:02:13;6.07;;;3.97;;
34142;SDS011;20419;10.658;106.724;2023-03-22T15:04:43;5.00;;;3.60;;
34142;SDS011;20419;10.658;106.724;2023-03-22T15:09:38;5.22;;;3.53;;
34142;SDS011;20419;10.658;106.724;2023-03-22T15:12:05;4.70;;;3.60;;
34142;SDS011;20419;10.658;106.724;2023-03-22T15:14:33;5.00;;;3.78;;
34142;SDS011;20419;10.658;106.724;2023-03-22T15:17:02;5.55;;;3.53;;
34142;SDS011;20419;10.658;106.724;2023-03-22T15:19:40;4.55;;;3.75;;
34142;SDS011;20419;10.658;106.724;2023-03-22T15:22:13;5.47;;;3.97;;
34142;SDS011;20419;10.658;106.724;2023-03-22T15:24:52;4.90;;;3.47;;
34142;SDS011;20419;10.658;106.724;2023-03-22T15:27:20;4.53;;;3.47;;
34142;SDS011;20419;10.658;106.724;2023-03-22T15:29:47;4.90;;;3.27;;
34142;SDS011;20419;10.658;106.724;2023-03-22T15:32:18;6.03;;;3.83;;
34142;SDS011;20419;10.658;106.724;2023-03-22T15:34:47;5.50;;;3.67;;
34142;SDS011;20419;10.658;106.724;2023-03-22T15:37:18;4.10;;;3.22;;
34142;SDS011;20419;10.658;106.724;2023-03-22T15:39:48;5.72;;;3.83;;
34142;SDS011;20419;10.658;106.724;2023-03-22T15:42:17;5.60;;;3.88;;
34142;SDS011;20419;10.658;106.724;2023-03-22T15:45:33;4.60;;;3.67;;
34142;SDS011;20419;10.658;106.724;2023-03-22T15:50:41;5.85;;;3.70;;
34142;SDS011;20419;10.658;106.724;2023-03-22T15:53:30;6.68;;;4.10;;
34142;SDS011;20419;10.658;106.724;2023-03-22T15:55:58;5.43;;;3.70;;
34142;SDS011;20419;10.658;106.724;2023-03-22T15:58:27;4.87;;;3.73;;
34142;SDS011;20419;10.658;106.724;2023-03-22T16:01:18;4.55;;;3.50;;
34142;SDS011;20419;10.658;106.724;2023-03-22T16:03:45;5.70;;;3.70;;
34142;SDS011;20419;10.658;106.724;2023-03-22T16:06:13;7.00;;;3.95;;
34142;SDS011;20419;10.658;106.724;2023-03-22T16:08:40;4.45;;;3.70;;
34142;SDS011;20419;10.658;106.724;2023-03-22T16:11:08;4.78;;;3.85;;
34142;SDS011;20419;10.658;106.724;2023-03-22T16:13:37;5.43;;;3.90;;
34142;SDS011;20419;10.658;106.724;2023-03-22T16:16:06;5.13;;;4.05;;
34142;SDS011;20419;10.658;106.724;2023-03-22T16:18:33;4.97;;;3.50;;
34142;SDS011;20419;10.658;106.724;2023-03-22T16:21:01;4.85;;;3.67;;
34142;SDS011;20419;10.658;106.724;2023-03-22T16:23:28;6.10;;;3.70;;
34142;SDS011;20419;10.658;106.724;2023-03-22T16:25:55;6.22;;;3.75;;
34142;SDS011;20419;10.658;106.724;2023-03-22T16:28:23;5.07;;;3.90;;
34142;SDS011;20419;10.658;106.724;2023-03-22T16:30:50;5.22;;;3.50;;
34142;SDS011;20419;10.658;106.724;2023-03-22T16:33:17;5.68;;;3.63;;
34142;SDS011;20419;10.658;106.724;2023-03-22T16:35:45;5.13;;;4.07;;
34142;SDS011;20419;10.658;106.724;2023-03-22T16:38:12;4.05;;;3.40;;
34142;SDS011;20419;10.658;106.724;2023-03-22T16:40:47;5.30;;;3.80;;
34142;SDS011;20419;10.658;106.724;2023-03-22T16:43:16;5.32;;;3.70;;
34142;SDS011;20419;10.658;106.724;2023-03-22T16:46:00;5.35;;;3.90;;
34142;SDS011;20419;10.658;106.724;2023-03-22T16:48:28;5.67;;;3.53;;
34142;SDS011;20419;10.658;106.724;2023-03-22T16:50:56;5.85;;;3.50;;
34142;SDS011;20419;10.658;106.724;2023-03-22T16:53:26;5.00;;;3.85;;
34142;SDS011;20419;10.658;106.724;2023-03-22T16:55:53;4.90;;;3.88;;
34142;SDS011;20419;10.658;106.724;2023-03-22T16:58:22;4.15;;;3.40;;
34142;SDS011;20419;10.658;106.724;2023-03-22T17:00:50;4.28;;;3.58;;
34142;SDS011;20419;10.658;106.724;2023-03-22T17:03:19;4.55;;;3.20;;
34142;SDS011;20419;10.658;106.724;2023-03-22T17:05:48;6.05;;;3.97;;